sensor_id;sensor_type;location;lat;lon;timestamp;P1;durP1;ratioP1;P2;durP2;ratioP2
16705;SDS011;8469;60.136;15.180;2023-05-16T00:01:36;6.95;;;3.70;;
16705;SDS011;8469;60.136;15.180;2023-05-16T00:04:04;6.12;;;3.62;;
16705;SDS011;8469;60.136;15.180;2023-05-16T00:06:32;9.37;;;3.80;;
16705;SDS011;8469;60.136;15.180;2023-05-16T00:09:01;5.92;;;3.90;;
16705;SDS011;8469;60.136;15.180;2023-05-16T00:11:28;9.43;;;3.50;;
16705;SDS011;8469;60.136;15.180;2023-05-16T00:13:56;6.00;;;3.70;;
16705;SDS011;8469;60.136;15.180;2023-05-16T00:16:24;8.80;;;3.83;;
16705;SDS011;8469;60.136;15.180;2023-05-16T00:18:55;5.17;;;3.83;;
16705;SDS011;8469;60.136;15.180;2023-05-16T00:21:23;8.68;;;4.10;;
16705;SDS011;8469;60.136;15.180;2023-05-16T00:23:50;8.60;;;4.10;;
16705;SDS011;8469;60.136;15.180;2023-05-16T00:26:18;5.62;;;4.00;;
16705;SDS011;8469;60.136;15.180;2023-05-16T00:28:46;7.37;;;3.50;;
16705;SDS011;8469;60.136;15.180;2023-05-16T00:31:13;5.62;;;3.67;;
16705;SDS011;8469;60.136;15.180;2023-05-16T00:33:40;9.53;;;4.03;;
16705;SDS011;8469;60.136;15.180;2023-05-16T00:36:08;8.58;;;3.50;;
16705;SDS011;8469;60.136;15.180;2023-05-16T00:38:35;5.70;;;3.47;;
16705;SDS011;8469;60.136;15.180;2023-05-16T00:41:02;5.40;;;3.90;;
16705;SDS011;8469;60.136;15.180;2023-05-16T00:43:30;7.47;;;3.77;;
16705;SDS011;8469;60.136;15.180;2023-05-16T00:45:57;6.65;;;4.17;;
16705;SDS011;8469;60.136;15.180;2023-05-16T00:48:26;4.28;;;3.70;;
16705;SDS011;8469;60.136;15.180;2023-05-16T00:50:53;7.25;;;3.90;;
16705;SDS011;8469;60.136;15.180;2023-05-16T00:53:20;8.65;;;3.90;;
16705;SDS011;8469;60.136;15.180;2023-05-16T00:55:50;11.08;;;4.10;;
16705;SDS011;8469;60.136;15.180;2023-05-16T00:58:17;7.60;;;4.00;;
16705;SDS011;8469;60.136;15.180;2023-05-16T01:00:44;5.75;;;3.60;;
16705;SDS011;8469;60.136;15.180;2023-05-16T01:03:13;7.65;;;4.10;;
16705;SDS011;8469;60.136;15.180;2023-05-16T01:05:40;6.73;;;4.37;;
16705;SDS011;8469;60.136;15.180;2023-05-16T01:08:07;6.72;;;4.10;;
16705;SDS011;8469;60.136;15.180;2023-05-16T01:10:36;7.90;;;3.98;;
16705;SDS011;8469;60.136;15.180;2023-05-16T01:15:42;5.90;;;4.30;;
16705;SDS011;8469;60.136;15.180;2023-05-16T01:18:23;10.05;;;4.42;;
16705;SDS011;8469;60.136;15.180;2023-05-16T01:20:49;10.98;;;4.22;;
16705;SDS011;8469;60.136;15.180;2023-05-16T01:23:19;7.10;;;4.50;;
16705;SDS011;8469;60.136;15.180;2023-05-16T01:28:22;6.95;;;4.37;;
16705;SDS011;8469;60.136;15.180;2023-05-16T01:30:51;10.67;;;4.90;;
16705;SDS011;8469;60.136;15.180;2023-05-16T01:33:18;6.12;;;4.72;;
16705;SDS011;8469;60.136;15.180;2023-05-16T01:35:50;5.70;;;4.42;;
16705;SDS011;8469;60.136;15.180;2023-05-16T01:38:35;5.37;;;4.58;;
16705;SDS011;8469;60.136;15.180;2023-05-16T01:43:42;6.85;;;4.58;;
16705;SDS011;8469;60.136;15.180;2023-05-16T01:46:11;9.53;;;4.53;;
16705;SDS011;8469;60.136;15.180;2023-05-16T01:48:43;5.37;;;4.72;;
16705;SDS011;8469;60.136;15.180;2023-05-16T01:51:11;9.83;;;4.92;;
16705;SDS011;8469;60.136;15.180;2023-05-16T01:53:39;11.53;;;4.78;;
16705;SDS011;8469;60.136;15.180;2023-05-16T01:56:08;7.80;;;4.87;;
16705;SDS011;8469;60.136;15.180;2023-05-16T01:58:35;8.20;;;4.53;;
16705;SDS011;8469;60.136;15.180;2023-05-16T02:01:08;7.40;;;5.00;;
16705;SDS011;8469;60.136;15.180;2023-05-16T02:03:32;6.55;;;5.15;;
16705;SDS011;8469;60.136;15.180;2023-05-16T02:06:00;9.78;;;4.70;;
16705;SDS011;8469;60.136;15.180;2023-05-16T02:08:27;7.20;;;5.50;;
16705;SDS011;8469;60.136;15.180;2023-05-16T02:10:55;9.20;;;5.77;;
16705;SDS011;8469;60.136;15.180;2023-05-16T02:13:22;11.33;;;5.30;;
16705;SDS011;8469;60.136;15.180;2023-05-16T02:15:50;10.65;;;5.25;;
16705;SDS011;8469;60.136;15.180;2023-05-16T02:18:18;8.80;;;4.70;;
16705;SDS011;8469;60.136;15.180;2023-05-16T02:20:45;7.40;;;4.40;;
16705;SDS011;8469;60.136;15.180;2023-05-16T02:23:13;7.00;;;4.15;;
16705;SDS011;8469;60.136;15.180;2023-05-16T02:25:40;5.00;;;3.83;;
16705;SDS011;8469;60.136;15.180;2023-05-16T02:28:07;12.10;;;4.20;;
16705;SDS011;8469;60.136;15.180;2023-05-16T02:30:35;10.25;;;4.37;;
16705;SDS011;8469;60.136;15.180;2023-05-16T02:33:02;5.58;;;4.00;;
16705;SDS011;8469;60.136;15.180;2023-05-16T02:35:30;7.50;;;4.25;;
16705;SDS011;8469;60.136;15.180;2023-05-16T02:37:57;8.50;;;4.40;;
16705;SDS011;8469;60.136;15.180;2023-05-16T02:40:24;7.37;;;4.58;;
16705;SDS011;8469;60.136;15.180;2023-05-16T02:42:53;7.70;;;4.70;;
16705;SDS011;8469;60.136;15.180;2023-05-16T02:45:21;9.35;;;5.20;;
16705;SDS011;8469;60.136;15.180;2023-05-16T02:47:50;8.88;;;5.10;;
16705;SDS011;8469;60.136;15.180;2023-05-16T02:50:17;12.15;;;5.45;;
16705;SDS011;8469;60.136;15.180;2023-05-16T02:52:44;8.35;;;5.50;;
16705;SDS011;8469;60.136;15.180;2023-05-16T02:55:12;8.63;;;5.10;;
16705;SDS011;8469;60.136;15.180;2023-05-16T02:57:39;10.00;;;5.28;;
16705;SDS011;8469;60.136;15.180;2023-05-16T03:00:07;10.20;;;5.17;;
16705;SDS011;8469;60.136;15.180;2023-05-16T03:02:36;10.10;;;5.45;;
16705;SDS011;8469;60.136;15.180;2023-05-16T03:05:04;11.68;;;5.50;;
16705;SDS011;8469;60.136;15.180;2023-05-16T03:07:31;12.13;;;5.50;;
16705;SDS011;8469;60.136;15.180;2023-05-16T03:09:59;10.82;;;5.22;;
16705;SDS011;8469;60.136;15.180;2023-05-16T03:12:26;13.98;;;5.55;;
16705;SDS011;8469;60.136;15.180;2023-05-16T03:14:53;9.15;;;5.30;;
16705;SDS011;8469;60.136;15.180;2023-05-16T03:17:21;10.05;;;5.53;;
16705;SDS011;8469;60.136;15.180;2023-05-16T03:19:48;9.43;;;5.47;;
16705;SDS011;8469;60.136;15.180;2023-05-16T03:22:15;10.75;;;6.10;;
16705;SDS011;8469;60.136;15.180;2023-05-16T03:24:43;9.08;;;6.25;;
16705;SDS011;8469;60.136;15.180;2023-05-16T03:27:10;7.80;;;6.03;;
16705;SDS011;8469;60.136;15.180;2023-05-16T03:29:38;12.40;;;6.00;;
16705;SDS011;8469;60.136;15.180;2023-05-16T03:32:05;8.73;;;6.15;;
16705;SDS011;8469;60.136;15.180;2023-05-16T03:34:32;9.60;;;6.75;;
16705;SDS011;8469;60.136;15.180;2023-05-16T03:37:00;14.43;;;7.00;;
16705;SDS011;8469;60.136;15.180;2023-05-16T03:39:27;9.80;;;6.85;;
16705;SDS011;8469;60.136;15.180;2023-05-16T03:41:55;14.67;;;6.73;;
16705;SDS011;8469;60.136;15.180;2023-05-16T03:44:22;13.78;;;6.67;;
16705;SDS011;8469;60.136;15.180;2023-05-16T03:46:50;15.35;;;6.97;;
16705;SDS011;8469;60.136;15.180;2023-05-16T03:49:18;13.60;;;7.37;;
16705;SDS011;8469;60.136;15.180;2023-05-16T03:51:46;9.48;;;7.00;;
16705;SDS011;8469;60.136;15.180;2023-05-16T03:54:13;11.95;;;7.10;;
16705;SDS011;8469;60.136;15.180;2023-05-16T03:56:40;9.80;;;6.75;;
16705;SDS011;8469;60.136;15.180;2023-05-16T03:59:08;11.75;;;7.05;;
16705;SDS011;8469;60.136;15.180;2023-05-16T04:01:35;25.12;;;6.80;;
16705;SDS011;8469;60.136;15.180;2023-05-16T04:04:05;9.60;;;6.50;;
16705;SDS011;8469;60.136;15.180;2023-05-16T04:06:31;11.35;;;6.00;;
16705;SDS011;8469;60.136;15.180;2023-05-16T04:08:59;13.98;;;6.80;;
16705;SDS011;8469;60.136;15.180;2023-05-16T04:11:26;17.85;;;6.70;;
16705;SDS011;8469;60.136;15.180;2023-05-16T04:13:54;9.73;;;6.37;;
16705;SDS011;8469;60.136;15.180;2023-05-16T04:16:22;20.75;;;7.35;;
16705;SDS011;8469;60.136;15.180;2023-05-16T04:18:49;9.43;;;7.30;;
16705;SDS011;8469;60.136;15.180;2023-05-16T04:21:17;11.57;;;6.35;;
16705;SDS011;8469;60.136;15.180;2023-05-16T04:23:44;12.20;;;6.65;;
16705;SDS011;8469;60.136;15.180;2023-05-16T04:26:12;17.90;;;6.22;;
16705;SDS011;8469;60.136;15.180;2023-05-16T04:28:39;6.23;;;5.63;;
16705;SDS011;8469;60.136;15.180;2023-05-16T04:31:07;10.35;;;5.67;;
16705;SDS011;8469;60.136;15.180;2023-05-16T04:33:34;8.67;;;5.70;;
16705;SDS011;8469;60.136;15.180;2023-05-16T04:36:02;10.97;;;5.10;;
16705;SDS011;8469;60.136;15.180;2023-05-16T04:38:31;6.25;;;4.90;;
16705;SDS011;8469;60.136;15.180;2023-05-16T04:40:58;7.28;;;5.15;;
16705;SDS011;8469;60.136;15.180;2023-05-16T04:43:27;8.60;;;5.57;;
16705;SDS011;8469;60.136;15.180;2023-05-16T04:45:54;8.28;;;5.28;;
16705;SDS011;8469;60.136;15.180;2023-05-16T04:48:23;10.45;;;5.40;;
16705;SDS011;8469;60.136;15.180;2023-05-16T04:50:51;12.95;;;5.60;;
16705;SDS011;8469;60.136;15.180;2023-05-16T04:53:18;8.40;;;5.80;;
16705;SDS011;8469;60.136;15.180;2023-05-16T04:55:45;8.08;;;5.75;;
16705;SDS011;8469;60.136;15.180;2023-05-16T04:58:13;8.83;;;5.50;;
16705;SDS011;8469;60.136;15.180;2023-05-16T05:00:40;10.28;;;5.70;;
16705;SDS011;8469;60.136;15.180;2023-05-16T05:03:08;16.48;;;5.50;;
16705;SDS011;8469;60.136;15.180;2023-05-16T05:05:35;6.92;;;5.40;;
16705;SDS011;8469;60.136;15.180;2023-05-16T05:08:07;6.00;;;5.40;;
16705;SDS011;8469;60.136;15.180;2023-05-16T05:10:31;10.97;;;5.73;;
16705;SDS011;8469;60.136;15.180;2023-05-16T05:13:01;16.17;;;5.60;;
16705;SDS011;8469;60.136;15.180;2023-05-16T05:15:29;13.23;;;5.90;;
16705;SDS011;8469;60.136;15.180;2023-05-16T05:17:56;8.95;;;6.10;;
16705;SDS011;8469;60.136;15.180;2023-05-16T05:32:38;6.62;;;5.30;;
16705;SDS011;8469;60.136;15.180;2023-05-16T05:35:05;9.45;;;5.33;;
16705;SDS011;8469;60.136;15.180;2023-05-16T05:37:46;6.17;;;5.20;;
16705;SDS011;8469;60.136;15.180;2023-05-16T05:40:12;8.68;;;5.17;;
16705;SDS011;8469;60.136;15.180;2023-05-16T05:42:39;12.28;;;6.12;;
16705;SDS011;8469;60.136;15.180;2023-05-16T05:45:10;12.95;;;5.60;;
16705;SDS011;8469;60.136;15.180;2023-05-16T05:47:37;11.12;;;5.30;;
16705;SDS011;8469;60.136;15.180;2023-05-16T05:50:05;14.38;;;6.15;;
16705;SDS011;8469;60.136;15.180;2023-05-16T05:52:32;12.80;;;5.45;;
16705;SDS011;8469;60.136;15.180;2023-05-16T05:55:00;8.40;;;5.42;;
16705;SDS011;8469;60.136;15.180;2023-05-16T05:57:27;9.13;;;5.62;;
16705;SDS011;8469;60.136;15.180;2023-05-16T05:59:55;11.80;;;6.08;;
16705;SDS011;8469;60.136;15.180;2023-05-16T06:02:22;8.53;;;5.37;;
16705;SDS011;8469;60.136;15.180;2023-05-16T06:04:54;8.75;;;5.37;;
16705;SDS011;8469;60.136;15.180;2023-05-16T06:07:18;6.30;;;4.90;;
16705;SDS011;8469;60.136;15.180;2023-05-16T06:09:46;7.75;;;5.10;;
16705;SDS011;8469;60.136;15.180;2023-05-16T06:12:13;6.97;;;4.97;;
16705;SDS011;8469;60.136;15.180;2023-05-16T06:14:40;9.88;;;5.08;;
16705;SDS011;8469;60.136;15.180;2023-05-16T06:17:08;11.65;;;5.17;;
16705;SDS011;8469;60.136;15.180;2023-05-16T06:19:35;9.60;;;4.90;;
16705;SDS011;8469;60.136;15.180;2023-05-16T06:22:03;7.10;;;4.90;;
16705;SDS011;8469;60.136;15.180;2023-05-16T06:24:30;8.05;;;5.17;;
16705;SDS011;8469;60.136;15.180;2023-05-16T06:26:57;7.85;;;5.10;;
16705;SDS011;8469;60.136;15.180;2023-05-16T06:29:25;5.60;;;5.00;;
16705;SDS011;8469;60.136;15.180;2023-05-16T06:31:52;10.88;;;5.10;;
16705;SDS011;8469;60.136;15.180;2023-05-16T06:34:19;7.62;;;4.58;;
16705;SDS011;8469;60.136;15.180;2023-05-16T06:36:48;10.55;;;5.20;;
16705;SDS011;8469;60.136;15.180;2023-05-16T06:39:16;9.90;;;4.90;;
16705;SDS011;8469;60.136;15.180;2023-05-16T06:41:43;10.85;;;5.30;;
16705;SDS011;8469;60.136;15.180;2023-05-16T06:44:10;8.53;;;5.35;;
16705;SDS011;8469;60.136;15.180;2023-05-16T06:46:38;10.90;;;4.87;;
16705;SDS011;8469;60.136;15.180;2023-05-16T06:49:05;9.60;;;4.97;;
16705;SDS011;8469;60.136;15.180;2023-05-16T06:51:33;12.13;;;4.70;;
16705;SDS011;8469;60.136;15.180;2023-05-16T06:54:00;8.45;;;4.70;;
16705;SDS011;8469;60.136;15.180;2023-05-16T06:56:28;11.75;;;5.10;;
16705;SDS011;8469;60.136;15.180;2023-05-16T06:58:56;7.53;;;5.10;;
16705;SDS011;8469;60.136;15.180;2023-05-16T07:01:24;7.70;;;5.22;;
16705;SDS011;8469;60.136;15.180;2023-05-16T07:03:51;7.10;;;5.20;;
16705;SDS011;8469;60.136;15.180;2023-05-16T07:06:18;7.10;;;5.40;;
16705;SDS011;8469;60.136;15.180;2023-05-16T07:08:46;10.55;;;5.60;;
16705;SDS011;8469;60.136;15.180;2023-05-16T07:11:13;8.58;;;5.42;;
16705;SDS011;8469;60.136;15.180;2023-05-16T07:13:42;8.13;;;5.08;;
16705;SDS011;8469;60.136;15.180;2023-05-16T07:16:09;7.37;;;5.20;;
16705;SDS011;8469;60.136;15.180;2023-05-16T07:18:37;6.97;;;5.20;;
16705;SDS011;8469;60.136;15.180;2023-05-16T07:21:04;8.03;;;5.00;;
16705;SDS011;8469;60.136;15.180;2023-05-16T07:23:32;8.15;;;5.10;;
16705;SDS011;8469;60.136;15.180;2023-05-16T07:25:59;13.13;;;4.75;;
16705;SDS011;8469;60.136;15.180;2023-05-16T07:28:26;6.92;;;4.72;;
16705;SDS011;8469;60.136;15.180;2023-05-16T07:30:54;9.25;;;4.80;;
16705;SDS011;8469;60.136;15.180;2023-05-16T07:33:23;8.65;;;4.60;;
16705;SDS011;8469;60.136;15.180;2023-05-16T07:35:51;7.05;;;4.87;;
16705;SDS011;8469;60.136;15.180;2023-05-16T07:38:19;7.97;;;4.70;;
16705;SDS011;8469;60.136;15.180;2023-05-16T07:40:47;6.78;;;4.20;;
16705;SDS011;8469;60.136;15.180;2023-05-16T07:43:15;12.70;;;4.83;;
16705;SDS011;8469;60.136;15.180;2023-05-16T07:45:42;9.78;;;4.55;;
16705;SDS011;8469;60.136;15.180;2023-05-16T07:48:09;7.30;;;4.40;;
16705;SDS011;8469;60.136;15.180;2023-05-16T07:50:37;9.78;;;4.58;;
16705;SDS011;8469;60.136;15.180;2023-05-16T07:53:04;6.22;;;4.62;;
16705;SDS011;8469;60.136;15.180;2023-05-16T07:55:32;10.48;;;4.45;;
16705;SDS011;8469;60.136;15.180;2023-05-16T07:57:59;7.72;;;4.37;;
16705;SDS011;8469;60.136;15.180;2023-05-16T08:00:27;9.40;;;4.80;;
16705;SDS011;8469;60.136;15.180;2023-05-16T08:02:54;7.67;;;4.95;;
16705;SDS011;8469;60.136;15.180;2023-05-16T08:05:22;6.35;;;4.60;;
16705;SDS011;8469;60.136;15.180;2023-05-16T08:07:49;6.20;;;4.67;;
16705;SDS011;8469;60.136;15.180;2023-05-16T08:10:17;10.25;;;4.83;;
16705;SDS011;8469;60.136;15.180;2023-05-16T08:12:44;6.12;;;4.42;;
16705;SDS011;8469;60.136;15.180;2023-05-16T08:15:12;8.63;;;4.42;;
16705;SDS011;8469;60.136;15.180;2023-05-16T08:17:39;6.70;;;3.80;;
16705;SDS011;8469;60.136;15.180;2023-05-16T08:20:07;8.30;;;4.80;;
16705;SDS011;8469;60.136;15.180;2023-05-16T08:22:35;7.75;;;4.40;;
16705;SDS011;8469;60.136;15.180;2023-05-16T08:25:02;6.65;;;3.90;;
16705;SDS011;8469;60.136;15.180;2023-05-16T08:27:29;6.25;;;4.03;;
16705;SDS011;8469;60.136;15.180;2023-05-16T08:29:57;7.65;;;4.10;;
16705;SDS011;8469;60.136;15.180;2023-05-16T08:32:24;7.83;;;4.22;;
16705;SDS011;8469;60.136;15.180;2023-05-16T08:34:52;5.80;;;4.35;;
16705;SDS011;8469;60.136;15.180;2023-05-16T08:37:19;5.65;;;4.15;;
16705;SDS011;8469;60.136;15.180;2023-05-16T08:39:46;8.75;;;4.20;;
16705;SDS011;8469;60.136;15.180;2023-05-16T08:42:14;5.53;;;4.08;;
16705;SDS011;8469;60.136;15.180;2023-05-16T08:44:41;8.03;;;4.08;;
16705;SDS011;8469;60.136;15.180;2023-05-16T08:47:14;6.83;;;4.10;;
16705;SDS011;8469;60.136;15.180;2023-05-16T08:49:40;6.50;;;4.05;;
16705;SDS011;8469;60.136;15.180;2023-05-16T08:52:08;5.58;;;4.25;;
16705;SDS011;8469;60.136;15.180;2023-05-16T08:54:36;4.53;;;3.95;;
16705;SDS011;8469;60.136;15.180;2023-05-16T08:57:03;5.97;;;3.90;;
16705;SDS011;8469;60.136;15.180;2023-05-16T08:59:31;9.55;;;4.08;;
16705;SDS011;8469;60.136;15.180;2023-05-16T09:01:59;8.78;;;4.17;;
16705;SDS011;8469;60.136;15.180;2023-05-16T09:04:26;7.92;;;3.83;;
16705;SDS011;8469;60.136;15.180;2023-05-16T09:06:54;6.62;;;4.10;;
16705;SDS011;8469;60.136;15.180;2023-05-16T09:09:22;5.97;;;3.80;;
16705;SDS011;8469;60.136;15.180;2023-05-16T09:11:50;7.20;;;4.20;;
16705;SDS011;8469;60.136;15.180;2023-05-16T09:14:17;14.80;;;4.12;;
16705;SDS011;8469;60.136;15.180;2023-05-16T09:16:45;5.12;;;3.70;;
16705;SDS011;8469;60.136;15.180;2023-05-16T09:19:14;7.93;;;3.57;;
16705;SDS011;8469;60.136;15.180;2023-05-16T09:21:41;7.78;;;3.85;;
16705;SDS011;8469;60.136;15.180;2023-05-16T09:24:10;5.22;;;3.62;;
16705;SDS011;8469;60.136;15.180;2023-05-16T09:26:38;7.37;;;3.52;;
16705;SDS011;8469;60.136;15.180;2023-05-16T09:29:11;6.78;;;4.10;;
16705;SDS011;8469;60.136;15.180;2023-05-16T09:31:39;7.67;;;4.10;;
16705;SDS011;8469;60.136;15.180;2023-05-16T09:34:07;5.55;;;3.77;;
16705;SDS011;8469;60.136;15.180;2023-05-16T09:36:34;7.30;;;3.67;;
16705;SDS011;8469;60.136;15.180;2023-05-16T09:39:02;10.32;;;4.00;;
16705;SDS011;8469;60.136;15.180;2023-05-16T09:41:32;10.70;;;3.98;;
16705;SDS011;8469;60.136;15.180;2023-05-16T09:43:58;7.92;;;4.03;;
16705;SDS011;8469;60.136;15.180;2023-05-16T09:46:25;5.40;;;3.60;;
16705;SDS011;8469;60.136;15.180;2023-05-16T09:48:53;4.62;;;3.70;;
16705;SDS011;8469;60.136;15.180;2023-05-16T09:51:21;9.77;;;3.80;;
16705;SDS011;8469;60.136;15.180;2023-05-16T09:53:49;4.65;;;3.40;;
16705;SDS011;8469;60.136;15.180;2023-05-16T09:56:16;4.80;;;3.30;;
16705;SDS011;8469;60.136;15.180;2023-05-16T09:58:46;7.75;;;3.40;;
16705;SDS011;8469;60.136;15.180;2023-05-16T10:01:14;8.05;;;3.60;;
16705;SDS011;8469;60.136;15.180;2023-05-16T10:03:41;9.80;;;3.95;;
16705;SDS011;8469;60.136;15.180;2023-05-16T10:06:11;6.00;;;3.87;;
16705;SDS011;8469;60.136;15.180;2023-05-16T10:08:37;9.40;;;3.83;;
16705;SDS011;8469;60.136;15.180;2023-05-16T10:11:07;12.33;;;3.40;;
16705;SDS011;8469;60.136;15.180;2023-05-16T10:13:35;5.65;;;3.12;;
16705;SDS011;8469;60.136;15.180;2023-05-16T10:16:09;8.43;;;3.77;;
16705;SDS011;8469;60.136;15.180;2023-05-16T10:18:31;4.90;;;3.17;;
16705;SDS011;8469;60.136;15.180;2023-05-16T10:21:03;3.80;;;3.33;;
16705;SDS011;8469;60.136;15.180;2023-05-16T10:23:30;5.20;;;3.30;;
16705;SDS011;8469;60.136;15.180;2023-05-16T10:25:59;5.75;;;3.17;;
16705;SDS011;8469;60.136;15.180;2023-05-16T10:28:27;6.77;;;3.20;;
16705;SDS011;8469;60.136;15.180;2023-05-16T10:30:55;13.90;;;3.42;;
16705;SDS011;8469;60.136;15.180;2023-05-16T10:33:23;4.72;;;3.33;;
16705;SDS011;8469;60.136;15.180;2023-05-16T10:35:51;4.17;;;3.10;;
16705;SDS011;8469;60.136;15.180;2023-05-16T10:38:19;5.95;;;3.50;;
16705;SDS011;8469;60.136;15.180;2023-05-16T10:40:47;4.75;;;3.40;;
16705;SDS011;8469;60.136;15.180;2023-05-16T10:43:29;4.90;;;3.20;;
16705;SDS011;8469;60.136;15.180;2023-05-16T10:45:56;9.33;;;3.22;;
16705;SDS011;8469;60.136;15.180;2023-05-16T10:50:58;4.28;;;3.45;;
16705;SDS011;8469;60.136;15.180;2023-05-16T11:01:21;5.60;;;3.12;;
16705;SDS011;8469;60.136;15.180;2023-05-16T11:06:30;5.00;;;3.62;;
16705;SDS011;8469;60.136;15.180;2023-05-16T11:11:43;7.55;;;3.58;;
16705;SDS011;8469;60.136;15.180;2023-05-16T11:17:00;3.73;;;2.93;;
16705;SDS011;8469;60.136;15.180;2023-05-16T11:19:28;6.62;;;3.08;;
16705;SDS011;8469;60.136;15.180;2023-05-16T11:22:09;5.83;;;3.20;;
16705;SDS011;8469;60.136;15.180;2023-05-16T11:24:53;5.50;;;3.75;;
16705;SDS011;8469;60.136;15.180;2023-05-16T11:27:21;29.92;;;4.28;;
16705;SDS011;8469;60.136;15.180;2023-05-16T11:29:50;6.20;;;3.20;;
16705;SDS011;8469;60.136;15.180;2023-05-16T11:32:21;4.95;;;3.17;;
16705;SDS011;8469;60.136;15.180;2023-05-16T11:34:49;4.47;;;3.00;;
16705;SDS011;8469;60.136;15.180;2023-05-16T11:37:18;3.08;;;2.85;;
16705;SDS011;8469;60.136;15.180;2023-05-16T11:39:46;5.90;;;3.08;;
16705;SDS011;8469;60.136;15.180;2023-05-16T11:42:14;5.55;;;3.20;;
16705;SDS011;8469;60.136;15.180;2023-05-16T11:44:41;4.40;;;3.00;;
16705;SDS011;8469;60.136;15.180;2023-05-16T11:47:08;8.68;;;3.25;;
16705;SDS011;8469;60.136;15.180;2023-05-16T11:49:36;7.90;;;3.20;;
16705;SDS011;8469;60.136;15.180;2023-05-16T11:52:03;7.12;;;3.17;;
16705;SDS011;8469;60.136;15.180;2023-05-16T11:54:31;7.73;;;3.57;;
16705;SDS011;8469;60.136;15.180;2023-05-16T11:56:59;7.65;;;3.27;;
16705;SDS011;8469;60.136;15.180;2023-05-16T11:59:27;4.92;;;2.90;;
16705;SDS011;8469;60.136;15.180;2023-05-16T12:01:54;7.70;;;3.27;;
16705;SDS011;8469;60.136;15.180;2023-05-16T12:04:22;5.45;;;3.00;;
16705;SDS011;8469;60.136;15.180;2023-05-16T12:06:56;10.15;;;3.35;;
16705;SDS011;8469;60.136;15.180;2023-05-16T12:09:18;11.60;;;4.00;;
16705;SDS011;8469;60.136;15.180;2023-05-16T12:11:46;4.80;;;3.22;;
16705;SDS011;8469;60.136;15.180;2023-05-16T12:14:13;7.37;;;3.20;;
16705;SDS011;8469;60.136;15.180;2023-05-16T12:16:41;7.75;;;3.45;;
16705;SDS011;8469;60.136;15.180;2023-05-16T12:19:09;4.58;;;3.12;;
16705;SDS011;8469;60.136;15.180;2023-05-16T12:21:37;5.05;;;3.33;;
16705;SDS011;8469;60.136;15.180;2023-05-16T12:24:04;8.98;;;3.08;;
16705;SDS011;8469;60.136;15.180;2023-05-16T12:26:40;10.13;;;3.40;;
16705;SDS011;8469;60.136;15.180;2023-05-16T12:29:08;6.08;;;3.10;;
16705;SDS011;8469;60.136;15.180;2023-05-16T12:31:37;6.10;;;3.20;;
16705;SDS011;8469;60.136;15.180;2023-05-16T12:34:04;4.47;;;3.00;;
16705;SDS011;8469;60.136;15.180;2023-05-16T12:36:49;4.33;;;2.83;;
16705;SDS011;8469;60.136;15.180;2023-05-16T12:39:14;4.95;;;3.10;;
16705;SDS011;8469;60.136;15.180;2023-05-16T12:41:42;8.90;;;3.57;;
16705;SDS011;8469;60.136;15.180;2023-05-16T12:44:13;4.10;;;3.00;;
16705;SDS011;8469;60.136;15.180;2023-05-16T12:46:43;8.33;;;3.20;;
16705;SDS011;8469;60.136;15.180;2023-05-16T12:49:11;7.90;;;3.40;;
16705;SDS011;8469;60.136;15.180;2023-05-16T12:51:39;7.50;;;3.42;;
16705;SDS011;8469;60.136;15.180;2023-05-16T12:54:07;3.98;;;3.15;;
16705;SDS011;8469;60.136;15.180;2023-05-16T12:56:35;11.68;;;3.60;;
16705;SDS011;8469;60.136;15.180;2023-05-16T12:59:03;9.55;;;3.15;;
16705;SDS011;8469;60.136;15.180;2023-05-16T13:01:30;4.03;;;2.92;;
16705;SDS011;8469;60.136;15.180;2023-05-16T13:03:58;7.03;;;3.10;;
16705;SDS011;8469;60.136;15.180;2023-05-16T13:06:25;8.45;;;3.12;;
16705;SDS011;8469;60.136;15.180;2023-05-16T13:08:53;8.93;;;3.83;;
16705;SDS011;8469;60.136;15.180;2023-05-16T13:11:21;7.15;;;3.25;;
16705;SDS011;8469;60.136;15.180;2023-05-16T13:13:48;4.60;;;3.37;;
16705;SDS011;8469;60.136;15.180;2023-05-16T13:16:16;6.25;;;3.25;;
16705;SDS011;8469;60.136;15.180;2023-05-16T13:18:43;4.35;;;3.35;;
16705;SDS011;8469;60.136;15.180;2023-05-16T13:21:11;5.33;;;3.27;;
16705;SDS011;8469;60.136;15.180;2023-05-16T13:23:38;6.50;;;3.55;;
16705;SDS011;8469;60.136;15.180;2023-05-16T13:26:05;4.15;;;3.22;;
16705;SDS011;8469;60.136;15.180;2023-05-16T13:28:33;4.87;;;3.35;;
16705;SDS011;8469;60.136;15.180;2023-05-16T13:31:00;5.42;;;3.20;;
16705;SDS011;8469;60.136;15.180;2023-05-16T13:33:27;13.57;;;3.67;;
16705;SDS011;8469;60.136;15.180;2023-05-16T13:35:55;6.75;;;3.40;;
16705;SDS011;8469;60.136;15.180;2023-05-16T13:38:25;4.80;;;3.40;;
16705;SDS011;8469;60.136;15.180;2023-05-16T13:40:52;7.87;;;3.30;;
16705;SDS011;8469;60.136;15.180;2023-05-16T13:43:19;5.05;;;3.40;;
16705;SDS011;8469;60.136;15.180;2023-05-16T13:45:47;3.67;;;3.30;;
16705;SDS011;8469;60.136;15.180;2023-05-16T13:48:14;5.78;;;3.25;;
16705;SDS011;8469;60.136;15.180;2023-05-16T13:50:42;9.28;;;3.35;;
16705;SDS011;8469;60.136;15.180;2023-05-16T13:53:09;6.75;;;3.40;;
16705;SDS011;8469;60.136;15.180;2023-05-16T13:55:37;10.85;;;3.67;;
16705;SDS011;8469;60.136;15.180;2023-05-16T13:58:04;4.20;;;3.20;;
16705;SDS011;8469;60.136;15.180;2023-05-16T14:00:32;7.12;;;3.92;;
16705;SDS011;8469;60.136;15.180;2023-05-16T14:02:59;6.40;;;3.55;;
16705;SDS011;8469;60.136;15.180;2023-05-16T14:05:26;6.40;;;3.50;;
16705;SDS011;8469;60.136;15.180;2023-05-16T14:07:54;7.12;;;3.62;;
16705;SDS011;8469;60.136;15.180;2023-05-16T14:10:21;4.78;;;3.42;;
16705;SDS011;8469;60.136;15.180;2023-05-16T14:12:48;5.05;;;3.25;;
16705;SDS011;8469;60.136;15.180;2023-05-16T14:15:17;9.13;;;3.50;;
16705;SDS011;8469;60.136;15.180;2023-05-16T14:17:44;7.60;;;3.30;;
16705;SDS011;8469;60.136;15.180;2023-05-16T14:20:11;10.80;;;3.47;;
16705;SDS011;8469;60.136;15.180;2023-05-16T14:22:40;9.83;;;3.50;;
16705;SDS011;8469;60.136;15.180;2023-05-16T14:25:08;8.93;;;3.10;;
16705;SDS011;8469;60.136;15.180;2023-05-16T14:27:35;9.05;;;3.20;;
16705;SDS011;8469;60.136;15.180;2023-05-16T14:30:02;5.87;;;3.12;;
16705;SDS011;8469;60.136;15.180;2023-05-16T14:32:30;5.77;;;3.13;;
16705;SDS011;8469;60.136;15.180;2023-05-16T14:34:57;4.50;;;3.17;;
16705;SDS011;8469;60.136;15.180;2023-05-16T14:37:25;7.03;;;3.00;;
16705;SDS011;8469;60.136;15.180;2023-05-16T14:39:52;9.90;;;3.30;;
16705;SDS011;8469;60.136;15.180;2023-05-16T14:42:19;7.28;;;3.22;;
16705;SDS011;8469;60.136;15.180;2023-05-16T14:44:48;11.63;;;3.33;;
16705;SDS011;8469;60.136;15.180;2023-05-16T14:47:15;6.05;;;3.10;;
16705;SDS011;8469;60.136;15.180;2023-05-16T14:49:43;7.90;;;3.33;;
16705;SDS011;8469;60.136;15.180;2023-05-16T14:52:09;7.35;;;3.37;;
16705;SDS011;8469;60.136;15.180;2023-05-16T14:54:38;7.85;;;3.02;;
16705;SDS011;8469;60.136;15.180;2023-05-16T14:57:05;7.85;;;3.30;;
16705;SDS011;8469;60.136;15.180;2023-05-16T14:59:33;5.17;;;3.20;;
16705;SDS011;8469;60.136;15.180;2023-05-16T15:02:00;7.75;;;2.83;;
16705;SDS011;8469;60.136;15.180;2023-05-16T15:04:28;4.80;;;2.93;;
16705;SDS011;8469;60.136;15.180;2023-05-16T15:06:55;9.73;;;3.00;;
16705;SDS011;8469;60.136;15.180;2023-05-16T15:09:22;6.58;;;2.90;;
16705;SDS011;8469;60.136;15.180;2023-05-16T15:11:50;3.65;;;2.80;;
16705;SDS011;8469;60.136;15.180;2023-05-16T15:14:17;5.90;;;3.10;;
16705;SDS011;8469;60.136;15.180;2023-05-16T15:16:45;6.33;;;2.95;;
16705;SDS011;8469;60.136;15.180;2023-05-16T15:19:12;3.00;;;2.80;;
16705;SDS011;8469;60.136;15.180;2023-05-16T15:21:40;6.90;;;3.15;;
16705;SDS011;8469;60.136;15.180;2023-05-16T15:24:07;3.77;;;2.75;;
16705;SDS011;8469;60.136;15.180;2023-05-16T15:26:34;4.07;;;2.90;;
16705;SDS011;8469;60.136;15.180;2023-05-16T15:29:02;4.58;;;2.83;;